createdAt,value
2023-04-09T00:00:04.902Z,26.2
2023-04-09T00:01:06.864Z,26.2
2023-04-09T00:02:08.749Z,26.2
2023-04-09T00:03:10.952Z,26.2
2023-04-09T00:04:13.254Z,26.2
2023-04-09T00:05:15.259Z,26.2
2023-04-09T00:06:17.277Z,26.2
2023-04-09T00:07:19.087Z,26.2
2023-04-09T00:08:20.954Z,26.2
2023-04-09T00:09:22.798Z,26.2
2023-04-09T00:10:24.688Z,26.2
2023-04-09T00:11:26.593Z,26.2
2023-04-09T00:12:28.435Z,26.2
2023-04-09T00:13:38.319Z,26.1
2023-04-09T00:14:41.767Z,26.1
2023-04-09T00:15:43.669Z,26.2
2023-04-09T00:16:45.602Z,26.2
2023-04-09T00:17:47.855Z,26.2
2023-04-09T00:18:50.124Z,26.2
2023-04-09T00:19:53.122Z,26.2
2023-04-09T00:20:54.987Z,26.2
2023-04-09T00:21:56.896Z,26.1
2023-04-09T00:22:58.721Z,26.1
2023-04-09T00:24:00.567Z,26.1
2023-04-09T00:25:02.490Z,26.1
2023-04-09T00:26:04.432Z,26.1
2023-04-09T00:27:06.235Z,26.1
2023-04-09T00:28:08.062Z,26.1
2023-04-09T00:29:09.934Z,26.1
2023-04-09T00:30:11.774Z,26.1
2023-04-09T00:31:13.707Z,26.1
2023-04-09T00:32:15.771Z,26.1
2023-04-09T00:33:17.525Z,26.1
2023-04-09T00:34:19.366Z,26.1
2023-04-09T00:35:21.215Z,26.1
2023-04-09T00:36:24.679Z,26.1
2023-04-09T00:37:28.892Z,26.1
2023-04-09T00:38:30.991Z,26.1
2023-04-09T00:39:32.807Z,26.1
2023-04-09T00:40:34.668Z,26.1
2023-04-09T00:41:36.472Z,26.1
2023-04-09T00:42:38.373Z,26.1
2023-04-09T00:43:40.226Z,26.1
2023-04-09T00:44:42.125Z,26.1
2023-04-09T00:45:44.195Z,26.1
2023-04-09T00:46:46.092Z,26.2
2023-04-09T00:47:47.927Z,26.2
2023-04-09T00:48:50.538Z,26.1
2023-04-09T00:49:53.680Z,26.1
2023-04-09T00:50:55.524Z,26.1
2023-04-09T00:51:57.376Z,26.1
2023-04-09T00:52:59.318Z,26.1
2023-04-09T00:54:01.220Z,26.1
2023-04-09T00:55:03.132Z,26.1
2023-04-09T00:56:04.990Z,26.2
2023-04-09T00:57:06.841Z,26.2
2023-04-09T00:58:08.601Z,26.2
2023-04-09T00:59:10.473Z,26.2
2023-04-09T01:00:12.494Z,26.2
2023-04-09T01:01:14.376Z,26.2
2023-04-09T01:02:16.608Z,26.2
2023-04-09T01:03:18.940Z,26.2
2023-04-09T01:04:21.219Z,26.2
2023-04-09T01:05:22.965Z,26.2
2023-04-09T01:06:24.754Z,26.2
2023-04-09T01:07:26.831Z,26.2
2023-04-09T01:08:28.740Z,26.2
2023-04-09T01:09:30.565Z,26.2
2023-04-09T01:10:32.322Z,26.2
2023-04-09T01:11:34.159Z,26.2
2023-04-09T01:12:36.068Z,26.2
2023-04-09T01:13:37.872Z,26.2
2023-04-09T01:14:40.098Z,26.2
2023-04-09T01:15:41.966Z,26.2
2023-04-09T01:16:43.840Z,26.2
2023-04-09T01:17:46.098Z,26.2
2023-04-09T01:18:48.246Z,26.2
2023-04-09T01:19:50.139Z,26.2
2023-04-09T01:20:52.052Z,26.2
2023-04-09T01:21:53.898Z,26.2
2023-04-09T01:22:55.740Z,26.2
2023-04-09T01:23:57.668Z,26.2
2023-04-09T01:24:59.507Z,26.2
2023-04-09T01:26:01.393Z,26.2
2023-04-09T01:27:03.240Z,26.2
2023-04-09T01:28:05.086Z,26.2
2023-04-09T01:29:06.941Z,26.2
2023-04-09T01:30:08.852Z,26.2
2023-04-09T01:31:10.796Z,26.2
2023-04-09T01:32:12.867Z,26.2
2023-04-09T01:33:14.810Z,26.2
2023-04-09T01:34:16.702Z,26.2
2023-04-09T01:35:18.642Z,26.2
2023-04-09T01:36:20.591Z,26.2
2023-04-09T01:37:22.465Z,26.2
2023-04-09T01:38:24.331Z,26.2
2023-04-09T01:39:26.183Z,26.2
2023-04-09T01:40:27.981Z,26.2
2023-04-09T01:41:29.899Z,26.2
2023-04-09T01:42:31.706Z,26.2
2023-04-09T01:43:33.581Z,26.2
2023-04-09T01:44:35.457Z,26.2
2023-04-09T01:45:37.284Z,26.2
2023-04-09T01:46:39.128Z,26.3
2023-04-09T01:47:41.006Z,26.2
2023-04-09T01:48:42.916Z,26.3
2023-04-09T01:49:44.795Z,26.3
2023-04-09T01:50:46.612Z,26.2
2023-04-09T01:51:48.564Z,26.2
2023-04-09T01:52:50.421Z,26.2
2023-04-09T01:53:52.278Z,26.2
2023-04-09T01:54:54.148Z,26.2
2023-04-09T01:55:55.960Z,26.2
2023-04-09T01:56:57.818Z,26.2
2023-04-09T01:57:59.630Z,26.2
2023-04-09T01:59:01.581Z,26.2
2023-04-09T02:00:03.365Z,26.2
2023-04-09T02:01:05.241Z,26.2
2023-04-09T02:02:07.527Z,26.2
2023-04-09T02:03:09.777Z,26.2
2023-04-09T02:04:12.290Z,26.2
2023-04-09T02:05:14.044Z,26.2
2023-04-09T02:06:15.866Z,26.2
2023-04-09T02:07:17.745Z,26.2
2023-04-09T02:08:19.601Z,26.2
2023-04-09T02:09:21.452Z,26.2
2023-04-09T02:10:23.331Z,26.2
2023-04-09T02:11:25.143Z,26.2
2023-04-09T02:12:26.971Z,26.2
2023-04-09T02:13:28.850Z,26.2
2023-04-09T02:14:30.702Z,26.2
2023-04-09T02:15:32.521Z,26.2
2023-04-09T02:16:34.403Z,26.2
2023-04-09T02:17:36.328Z,26.2
2023-04-09T02:18:38.410Z,26.2
2023-04-09T02:19:40.314Z,26.2
2023-04-09T02:20:42.214Z,26.2
2023-04-09T02:21:44.060Z,26.2
2023-04-09T02:22:45.916Z,26.3
2023-04-09T02:23:47.714Z,26.3
2023-04-09T02:24:49.613Z,26.2
2023-04-09T02:25:51.592Z,26.3
2023-04-09T02:26:53.470Z,26.3
2023-04-09T02:27:55.374Z,26.3
2023-04-09T02:28:57.117Z,26.3
2023-04-09T02:29:58.958Z,26.3
2023-04-09T02:31:00.841Z,26.2
2023-04-09T02:32:02.801Z,26.2
2023-04-09T02:33:04.723Z,26.2
2023-04-09T02:34:06.572Z,26.2
2023-04-09T02:35:08.418Z,26.2
2023-04-09T02:36:10.214Z,26.2
2023-04-09T02:37:12.126Z,26.2
2023-04-09T02:38:14.043Z,26.2
2023-04-09T02:39:15.828Z,26.2
2023-04-09T02:40:17.669Z,26.2
2023-04-09T02:41:19.550Z,26.2
2023-04-09T02:42:21.524Z,26.2
2023-04-09T02:43:23.464Z,26.2
2023-04-09T02:44:25.267Z,26.2
2023-04-09T02:45:27.117Z,26.2
2023-04-09T02:46:29.023Z,26.2
2023-04-09T02:47:31.096Z,26.2
2023-04-09T02:48:32.988Z,26.2
2023-04-09T02:49:34.836Z,26.2
2023-04-09T02:50:36.686Z,26.2
2023-04-09T02:51:38.435Z,26.3
2023-04-09T02:52:40.354Z,26.3
2023-04-09T02:53:42.246Z,26.3
2023-04-09T02:54:43.977Z,26.3
2023-04-09T02:55:45.834Z,26.2
2023-04-09T02:56:47.811Z,26.3
2023-04-09T02:57:49.665Z,26.2
2023-04-09T02:58:51.748Z,26.2
2023-04-09T02:59:54.670Z,26.3
2023-04-09T03:00:56.512Z,26.2
2023-04-09T03:01:58.514Z,26.2
2023-04-09T03:03:01.030Z,26.2
2023-04-09T03:04:03.821Z,26.2
2023-04-09T03:05:06.276Z,26.2
2023-04-09T03:06:08.183Z,26.2
2023-04-09T03:07:10.070Z,26.3
2023-04-09T03:08:11.828Z,26.3
2023-04-09T03:09:13.566Z,26.2
2023-04-09T03:10:15.481Z,26.2
2023-04-09T03:11:17.297Z,26.2
2023-04-09T03:12:19.199Z,26.2
2023-04-09T03:13:21.077Z,26.2
2023-04-09T03:14:22.920Z,26.2
2023-04-09T03:15:24.696Z,26.2
2023-04-09T03:16:26.627Z,26.2
2023-04-09T03:17:28.577Z,26.2
2023-04-09T03:18:30.526Z,26.2
2023-04-09T03:19:32.288Z,26.2
2023-04-09T03:20:34.120Z,26.2
2023-04-09T03:21:35.977Z,26.2
2023-04-09T03:22:37.797Z,26.1
2023-04-09T03:23:39.727Z,26.1
2023-04-09T03:24:41.676Z,26
2023-04-09T03:25:43.683Z,25.9
2023-04-09T03:26:45.490Z,25.8
2023-04-09T03:27:47.401Z,25.8
2023-04-09T03:28:49.160Z,25.8
2023-04-09T03:29:51.695Z,25.8
2023-04-09T03:30:53.456Z,25.8
2023-04-09T03:31:55.453Z,25.7
2023-04-09T03:32:57.383Z,25.7
2023-04-09T03:33:59.400Z,25.7
2023-04-09T03:35:01.166Z,25.6
2023-04-09T03:36:03.017Z,25.6
2023-04-09T03:37:05.227Z,25.6
2023-04-09T03:38:07.115Z,25.7
2023-04-09T03:39:08.964Z,25.7
2023-04-09T03:40:10.849Z,25.8
2023-04-09T03:41:12.590Z,25.8
2023-04-09T03:42:14.457Z,25.8
2023-04-09T03:43:16.391Z,25.9
2023-04-09T03:44:18.308Z,25.9
2023-04-09T03:45:20.136Z,25.9
2023-04-09T03:46:22.011Z,25.9
2023-04-09T03:47:24.038Z,25.9
2023-04-09T03:48:26.019Z,25.9
2023-04-09T03:49:27.972Z,25.9
2023-04-09T03:50:29.831Z,25.9
2023-04-09T03:51:31.631Z,25.9
2023-04-09T03:52:33.597Z,26
2023-04-09T03:53:35.476Z,26
2023-04-09T03:54:37.320Z,26
2023-04-09T03:55:39.215Z,26
2023-04-09T03:56:41.264Z,26
2023-04-09T03:57:43.071Z,26
2023-04-09T03:58:45.080Z,26
2023-04-09T03:59:46.887Z,26
2023-04-09T04:00:48.699Z,26
2023-04-09T04:01:50.680Z,26
2023-04-09T04:02:53.082Z,26
2023-04-09T04:03:56.124Z,26
2023-04-09T04:04:58.492Z,26.1
2023-04-09T04:06:00.348Z,26.1
2023-04-09T04:07:02.227Z,26
2023-04-09T04:08:04.030Z,26.1
2023-04-09T04:09:05.920Z,26.1
2023-04-09T04:10:07.847Z,26.1
2023-04-09T04:11:09.712Z,26
2023-04-09T04:12:11.584Z,26.1
2023-04-09T04:13:13.528Z,26
2023-04-09T04:14:15.580Z,26.1
2023-04-09T04:15:17.411Z,26.1
2023-04-09T04:16:19.269Z,26.1
2023-04-09T04:17:21.380Z,26.1
2023-04-09T04:18:23.258Z,26.1
2023-04-09T04:19:25.065Z,26.1
2023-04-09T04:20:26.849Z,26.1
2023-04-09T04:21:28.754Z,26.1
2023-04-09T04:22:30.631Z,26.1
2023-04-09T04:23:32.508Z,26.1
2023-04-09T04:24:34.450Z,26.1
2023-04-09T04:25:36.336Z,26
2023-04-09T04:26:38.167Z,26
2023-04-09T04:27:40.076Z,26
2023-04-09T04:28:41.950Z,26
2023-04-09T04:29:43.826Z,26.1
2023-04-09T04:30:45.552Z,26.1
2023-04-09T04:31:47.614Z,26.1
2023-04-09T04:32:49.663Z,26.1
2023-04-09T04:33:51.510Z,26.1
2023-04-09T04:34:53.266Z,26.1
2023-04-09T04:35:55.109Z,26
2023-04-09T04:36:57.020Z,26
2023-04-09T04:37:58.885Z,26
2023-04-09T04:39:00.760Z,26.1
2023-04-09T04:40:02.612Z,26.1
2023-04-09T04:41:04.462Z,26.1
2023-04-09T04:42:06.317Z,26.1
2023-04-09T04:43:08.230Z,26.1
2023-04-09T04:44:10.118Z,26.1
2023-04-09T04:45:12.016Z,26.1
2023-04-09T04:46:13.948Z,26.1
2023-04-09T04:47:16.185Z,26.1
2023-04-09T04:48:18.092Z,26.1
2023-04-09T04:49:19.875Z,26.1
2023-04-09T04:50:21.731Z,26.1
2023-04-09T04:51:23.583Z,26.1
2023-04-09T04:52:25.481Z,26.1
2023-04-09T04:53:27.310Z,26.1
2023-04-09T04:54:29.126Z,26.1
2023-04-09T04:55:30.973Z,26.1
2023-04-09T04:56:32.889Z,26.1
2023-04-09T04:57:34.784Z,26.1
2023-04-09T04:58:36.633Z,26.2
2023-04-09T04:59:38.383Z,26.2
2023-04-09T05:00:40.389Z,26.2
2023-04-09T05:01:42.470Z,26.2
2023-04-09T05:02:45.136Z,26.3
2023-04-09T05:03:47.860Z,26.3
2023-04-09T05:04:50.607Z,26.3
2023-04-09T05:05:52.499Z,26.4
2023-04-09T05:06:54.405Z,26.4
2023-04-09T05:07:56.250Z,26.4
2023-04-09T05:08:58.114Z,26.4
2023-04-09T05:09:59.962Z,26.4
2023-04-09T05:11:01.985Z,26.4
2023-04-09T05:12:03.848Z,26.4
2023-04-09T05:13:05.714Z,26.4
2023-04-09T05:14:07.557Z,26.4
2023-04-09T05:15:09.471Z,26.4
2023-04-09T05:16:11.460Z,26.4
2023-04-09T05:17:13.583Z,26.4
2023-04-09T05:18:15.569Z,26.4
2023-04-09T05:19:17.578Z,26.4
2023-04-09T05:20:19.475Z,26.4
2023-04-09T05:21:21.329Z,26.4
2023-04-09T05:22:23.177Z,26.4
2023-04-09T05:23:25.033Z,26.4
2023-04-09T05:24:26.929Z,26.4
2023-04-09T05:25:28.823Z,26.4
2023-04-09T05:26:30.681Z,26.4
2023-04-09T05:27:32.408Z,26.4
2023-04-09T05:28:34.183Z,26.4
2023-04-09T05:29:36.094Z,26.4
2023-04-09T05:30:37.914Z,26.4
2023-04-09T05:31:39.946Z,26.4
2023-04-09T05:32:41.826Z,26.4
2023-04-09T05:33:43.791Z,26.4
2023-04-09T05:34:45.701Z,26.4
2023-04-09T05:35:47.661Z,26.4
2023-04-09T05:36:49.598Z,26.4
2023-04-09T05:37:51.335Z,26.4
2023-04-09T05:38:53.259Z,26.4
2023-04-09T05:39:56.670Z,26.4
2023-04-09T05:40:58.498Z,26.4
2023-04-09T05:42:00.383Z,26.4
2023-04-09T05:43:02.431Z,26.4
2023-04-09T05:44:04.283Z,26.4
2023-04-09T05:45:06.088Z,26.4
2023-04-09T05:46:07.982Z,26.4
2023-04-09T05:47:10.223Z,26.4
2023-04-09T05:48:12.095Z,26.4
2023-04-09T05:49:13.944Z,26.5
2023-04-09T05:50:15.800Z,26.4
2023-04-09T05:51:17.639Z,26.5
2023-04-09T05:52:19.532Z,26.5
2023-04-09T05:53:21.338Z,26.5
2023-04-09T05:54:23.194Z,26.5
2023-04-09T05:55:25.005Z,26.5
2023-04-09T05:56:26.887Z,26.5
2023-04-09T05:57:28.706Z,26.5
2023-04-09T05:58:30.391Z,26.5
2023-04-09T05:59:32.238Z,26.5
2023-04-09T06:00:34.085Z,26.5
2023-04-09T06:01:35.947Z,26.5
2023-04-09T06:02:38.258Z,26.5
2023-04-09T06:03:40.629Z,26.5
2023-04-09T06:04:42.977Z,26.5
2023-04-09T06:05:45.084Z,26.5
2023-04-09T06:06:46.967Z,26.5
2023-04-09T06:07:48.886Z,26.5
2023-04-09T06:08:50.732Z,26.5
2023-04-09T06:09:52.579Z,26.5
2023-04-09T06:10:54.439Z,26.5
2023-04-09T06:11:56.323Z,26.5
2023-04-09T06:12:58.299Z,26.5
2023-04-09T06:14:00.189Z,26.5
2023-04-09T06:15:02.106Z,26.5
2023-04-09T06:16:04.008Z,26.5
2023-04-09T06:17:06.043Z,26.5
2023-04-09T06:18:08.388Z,26.5
2023-04-09T06:19:10.749Z,26.6
2023-04-09T06:20:12.512Z,26.6
2023-04-09T06:21:14.261Z,26.6
2023-04-09T06:22:16.012Z,26.6
2023-04-09T06:23:17.943Z,26.6
2023-04-09T06:24:19.736Z,26.6
2023-04-09T06:25:21.469Z,26.6
2023-04-09T06:26:23.240Z,26.6
2023-04-09T06:27:25.062Z,26.6
2023-04-09T06:28:26.845Z,26.7
2023-04-09T06:29:28.813Z,26.7
2023-04-09T06:30:30.710Z,26.7
2023-04-09T06:31:32.580Z,26.7
2023-04-09T06:32:43.599Z,26.7
2023-04-09T06:33:57.413Z,26.7
2023-04-09T06:34:59.262Z,26.8
2023-04-09T06:36:01.125Z,26.8
2023-04-09T06:37:03.204Z,26.8
2023-04-09T06:38:05.068Z,26.7
2023-04-09T06:39:06.813Z,26.7
2023-04-09T06:40:08.696Z,26.7
2023-04-09T06:41:10.611Z,26.7
2023-04-09T06:42:12.404Z,26.7
2023-04-09T06:43:14.229Z,26.7
2023-04-09T06:44:16.110Z,26.7
2023-04-09T06:45:18.012Z,26.7
2023-04-09T06:46:19.958Z,26.7
2023-04-09T06:47:22.217Z,26.7
2023-04-09T06:48:24.162Z,26.8
2023-04-09T06:49:26.048Z,26.8
2023-04-09T06:50:27.684Z,26.8
2023-04-09T06:51:29.512Z,26.8
2023-04-09T06:52:31.400Z,26.8
2023-04-09T06:53:33.128Z,26.8
2023-04-09T06:54:35.145Z,26.8
2023-04-09T06:55:37.027Z,26.8
2023-04-09T06:56:38.933Z,26.8
2023-04-09T06:57:40.522Z,26.8
2023-04-09T06:58:42.318Z,26.8
2023-04-09T06:59:44.114Z,26.8
2023-04-09T07:00:45.981Z,26.8
2023-04-09T07:01:47.812Z,26.8
2023-04-09T07:02:50.367Z,26.8
2023-04-09T07:03:53.586Z,26.7
2023-04-09T07:04:56.868Z,26.7
2023-04-09T07:05:58.725Z,26.7
2023-04-09T07:07:00.610Z,26.7
2023-04-09T07:08:02.504Z,26.7
2023-04-09T07:09:04.342Z,26.7
2023-04-09T07:10:06.342Z,26.7
2023-04-09T07:11:08.176Z,26.7
2023-04-09T07:12:10.143Z,26.7
2023-04-09T07:13:12.059Z,26.7
2023-04-09T07:14:13.963Z,26.7
2023-04-09T07:15:15.873Z,26.7
2023-04-09T07:16:18.158Z,26.6
2023-04-09T07:17:20.382Z,26.7
2023-04-09T07:18:22.122Z,26.7
2023-04-09T07:19:23.958Z,26.7
2023-04-09T07:20:25.848Z,26.7
2023-04-09T07:21:28.094Z,26.7
2023-04-09T07:22:29.928Z,26.7
2023-04-09T07:23:31.950Z,26.6
2023-04-09T07:24:33.831Z,26.6
2023-04-09T07:25:35.685Z,26.6
2023-04-09T07:26:37.561Z,26.6
2023-04-09T07:27:39.386Z,26.6
2023-04-09T07:28:41.306Z,26.6
2023-04-09T07:29:43.092Z,26.6
2023-04-09T07:30:44.935Z,26.6
2023-04-09T07:31:46.809Z,26.6
2023-04-09T07:32:48.747Z,26.6
2023-04-09T07:33:51.321Z,26.6
2023-04-09T07:34:54.217Z,26.6
2023-04-09T07:35:56.270Z,26.6
2023-04-09T07:36:58.303Z,26.6
2023-04-09T07:38:00.350Z,26.6
2023-04-09T07:39:02.390Z,26.6
2023-04-09T07:40:04.564Z,26.6
2023-04-09T07:41:06.616Z,26.6
2023-04-09T07:42:08.463Z,26.5
2023-04-09T07:43:10.258Z,26.6
2023-04-09T07:44:12.289Z,26.6
2023-04-09T07:45:14.065Z,26.6
2023-04-09T07:46:15.991Z,26.5
2023-04-09T07:47:17.923Z,26.5
2023-04-09T07:48:19.763Z,26.5
2023-04-09T07:49:21.756Z,26.5
2023-04-09T07:50:23.679Z,26.5
2023-04-09T07:51:25.665Z,26.5
2023-04-09T07:52:27.510Z,26.6
2023-04-09T07:53:29.526Z,26.5
2023-04-09T07:54:31.451Z,26.5
2023-04-09T07:55:33.341Z,26.5
2023-04-09T07:56:35.077Z,26.5
2023-04-09T07:57:36.973Z,26.5
2023-04-09T07:58:38.877Z,26.5
2023-04-09T07:59:40.800Z,26.6
2023-04-09T08:00:42.646Z,26.6
2023-04-09T08:01:44.593Z,26.5
2023-04-09T08:02:46.901Z,26.5
2023-04-09T08:03:49.649Z,26.5
2023-04-09T08:04:52.362Z,26.5
2023-04-09T08:05:54.805Z,26.5
2023-04-09T08:06:56.695Z,26.5
2023-04-09T08:07:58.720Z,26.5
2023-04-09T08:09:00.560Z,26.5
2023-04-09T08:10:02.416Z,26.5
2023-04-09T08:11:04.153Z,26.5
2023-04-09T08:12:06.052Z,26.5
2023-04-09T08:13:08.705Z,26.5
2023-04-09T08:14:13.539Z,26.5
2023-04-09T08:15:15.448Z,26.5
2023-04-09T08:16:17.384Z,26.5
2023-04-09T08:17:19.459Z,26.5
2023-04-09T08:18:21.138Z,26.5
2023-04-09T08:19:22.864Z,26.5
2023-04-09T08:20:24.749Z,26.5
2023-04-09T08:21:26.725Z,26.5
2023-04-09T08:22:28.637Z,26.5
2023-04-09T08:23:30.563Z,26.5
2023-04-09T08:24:32.311Z,26.5
2023-04-09T08:25:34.158Z,26.5
2023-04-09T08:26:36.045Z,26.5
2023-04-09T08:27:37.843Z,26.5
2023-04-09T08:28:39.722Z,26.5
2023-04-09T08:29:41.627Z,26.4
2023-04-09T08:30:43.502Z,26.5
2023-04-09T08:31:45.465Z,26.5
2023-04-09T08:32:47.739Z,26.4
2023-04-09T08:33:49.781Z,26.4
2023-04-09T08:34:51.671Z,26.4
2023-04-09T08:35:53.557Z,26.4
2023-04-09T08:36:55.523Z,26.4
2023-04-09T08:37:57.501Z,26.4
2023-04-09T08:38:59.423Z,26.5
2023-04-09T08:40:01.283Z,26.4
2023-04-09T08:41:03.241Z,26.4
2023-04-09T08:42:05.194Z,26.4
2023-04-09T08:43:07.154Z,26.4
2023-04-09T08:44:08.910Z,26.4
2023-04-09T08:45:10.658Z,26.4
2023-04-09T08:46:12.484Z,26.5
2023-04-09T08:47:14.380Z,26.5
2023-04-09T08:48:16.457Z,26.4
2023-04-09T08:49:18.657Z,26.4
2023-04-09T08:50:20.631Z,26.4
2023-04-09T08:51:22.898Z,26.5
2023-04-09T08:52:25.332Z,26.5
2023-04-09T08:53:27.413Z,26.5
2023-04-09T08:54:29.239Z,26.5
2023-04-09T08:55:31.187Z,26.5
2023-04-09T08:56:33.147Z,26.5
2023-04-09T08:57:34.968Z,26.5
2023-04-09T08:58:36.842Z,26.5
2023-04-09T08:59:38.692Z,26.5
2023-04-09T09:00:40.632Z,26.5
2023-04-09T09:01:42.629Z,26.5
2023-04-09T09:02:45.050Z,26.5
2023-04-09T09:03:47.248Z,26.5
2023-04-09T09:04:49.673Z,26.5
2023-04-09T09:05:51.532Z,26.5
2023-04-09T09:06:55.388Z,26.5
2023-04-09T09:07:58.534Z,26.5
2023-04-09T09:09:00.375Z,26.5
2023-04-09T09:10:02.191Z,26.5
2023-04-09T09:11:04.074Z,26.5
2023-04-09T09:12:05.971Z,26.5
2023-04-09T09:13:07.885Z,26.5
2023-04-09T09:14:09.708Z,26.5
2023-04-09T09:15:11.753Z,26.5
2023-04-09T09:16:13.630Z,26.5
2023-04-09T09:17:15.642Z,26.5
2023-04-09T09:18:17.709Z,26.5
2023-04-09T09:19:19.605Z,26.5
2023-04-09T09:20:21.426Z,26.5
2023-04-09T09:21:23.349Z,26.5
2023-04-09T09:22:25.251Z,26.5
2023-04-09T09:23:27.283Z,26.5
2023-04-09T09:24:29.093Z,26.5
2023-04-09T09:25:30.979Z,26.5
2023-04-09T09:26:32.985Z,26.5
2023-04-09T09:27:34.679Z,26.5
2023-04-09T09:28:36.632Z,26.5
2023-04-09T09:29:38.572Z,26.5
2023-04-09T09:30:40.449Z,26.5
2023-04-09T09:31:42.481Z,26.5
2023-04-09T09:32:44.341Z,26.6
2023-04-09T09:33:46.396Z,26.6
2023-04-09T09:34:48.280Z,26.6
2023-04-09T09:35:50.177Z,26.6
2023-04-09T09:36:52.372Z,26.6
2023-04-09T09:37:54.713Z,26.6
2023-04-09T09:38:56.566Z,26.6
2023-04-09T09:39:58.552Z,26.6
2023-04-09T09:41:00.404Z,26.6
2023-04-09T09:42:02.314Z,26.6
2023-04-09T09:43:04.181Z,26.6
2023-04-09T09:44:06.068Z,26.6
2023-04-09T09:45:08.055Z,26.7
2023-04-09T09:46:09.867Z,26.7
2023-04-09T09:47:12.036Z,26.7
2023-04-09T09:48:13.840Z,26.7
2023-04-09T09:49:15.726Z,26.7
2023-04-09T09:50:17.571Z,26.7
2023-04-09T09:51:19.701Z,26.7
2023-04-09T09:52:21.602Z,26.7
2023-04-09T09:53:23.600Z,26.7
2023-04-09T09:54:25.453Z,26.7
2023-04-09T09:55:27.605Z,26.7
2023-04-09T09:56:29.476Z,26.6
2023-04-09T09:57:31.372Z,26.6
2023-04-09T09:58:33.258Z,26.7
2023-04-09T09:59:35.111Z,26.7
2023-04-09T10:00:36.842Z,26.7
2023-04-09T10:01:38.877Z,26.7
2023-04-09T10:02:40.998Z,26.7
2023-04-09T10:03:43.223Z,26.7
2023-04-09T10:04:45.138Z,26.7
2023-04-09T10:05:47.413Z,26.7
2023-04-09T10:06:49.818Z,26.8
2023-04-09T10:07:55.130Z,26.8
2023-04-09T10:08:56.988Z,26.8
2023-04-09T10:09:58.803Z,26.8
2023-04-09T10:11:00.701Z,26.8
2023-04-09T10:12:02.607Z,26.8
2023-04-09T10:13:04.382Z,26.8
2023-04-09T10:14:06.220Z,26.8
2023-04-09T10:15:08.184Z,26.9
2023-04-09T10:16:10.095Z,26.9
2023-04-09T10:17:12.091Z,26.8
2023-04-09T10:18:13.936Z,26.8
2023-04-09T10:19:15.834Z,26.8
2023-04-09T10:20:17.622Z,26.9
2023-04-09T10:21:19.616Z,26.9
2023-04-09T10:22:21.442Z,26.8
2023-04-09T10:23:23.289Z,26.9
2023-04-09T10:24:25.030Z,26.9
2023-04-09T10:25:26.879Z,26.9
2023-04-09T10:26:28.763Z,26.9
2023-04-09T10:27:30.671Z,26.9
2023-04-09T10:28:32.545Z,26.9
2023-04-09T10:29:34.571Z,26.9
2023-04-09T10:30:36.442Z,26.9
2023-04-09T10:31:38.443Z,26.9
2023-04-09T10:32:40.624Z,26.9
2023-04-09T10:33:42.609Z,26.9
2023-04-09T10:34:44.377Z,26.9
2023-04-09T10:35:46.207Z,26.9
2023-04-09T10:36:48.219Z,26.9
2023-04-09T10:37:50.174Z,26.9
2023-04-09T10:38:52.280Z,26.9
2023-04-09T10:39:55.056Z,26.9
2023-04-09T10:40:56.889Z,26.9
2023-04-09T10:41:58.883Z,26.9
2023-04-09T10:43:00.873Z,27
2023-04-09T10:44:02.824Z,26.9
2023-04-09T10:45:04.709Z,26.9
2023-04-09T10:46:06.562Z,26.9
2023-04-09T10:47:08.506Z,26.9
2023-04-09T10:48:10.317Z,27
2023-04-09T10:49:12.220Z,27
2023-04-09T10:50:14.150Z,27
2023-04-09T10:51:16.120Z,27
2023-04-09T10:52:18.028Z,27
2023-04-09T10:53:20.211Z,27
2023-04-09T10:54:22.069Z,27
2023-04-09T10:55:24.024Z,27
2023-04-09T10:56:25.866Z,27
2023-04-09T10:57:27.810Z,27
2023-04-09T10:58:29.670Z,27
2023-04-09T10:59:31.516Z,27
2023-04-09T11:00:33.374Z,27
2023-04-09T11:01:35.195Z,27
2023-04-09T11:02:37.625Z,27
2023-04-09T11:03:40.997Z,27
2023-04-09T11:04:43.056Z,27
2023-04-09T11:05:45.107Z,27
2023-04-09T11:06:46.967Z,27
2023-04-09T11:07:48.848Z,27
2023-04-09T11:08:50.923Z,27
2023-04-09T11:09:53.530Z,26.9
2023-04-09T11:10:55.350Z,27
2023-04-09T11:11:57.241Z,27
2023-04-09T11:12:59.072Z,27
2023-04-09T11:14:00.980Z,27
2023-04-09T11:15:02.899Z,27
2023-04-09T11:16:04.828Z,27
2023-04-09T11:17:06.956Z,27
2023-04-09T11:18:08.810Z,27
2023-04-09T11:19:10.731Z,27
2023-04-09T11:20:12.608Z,27
2023-04-09T11:21:14.456Z,27
2023-04-09T11:22:16.305Z,27
2023-04-09T11:23:18.117Z,27
2023-04-09T11:24:19.978Z,27
2023-04-09T11:25:21.856Z,27
2023-04-09T11:26:23.718Z,26.9
2023-04-09T11:27:25.558Z,26.9
2023-04-09T11:28:27.485Z,26.9
2023-04-09T11:29:29.361Z,26.8
2023-04-09T11:30:31.223Z,26.8
2023-04-09T11:31:33.106Z,26.7
2023-04-09T11:32:35.262Z,26.6
2023-04-09T11:33:37.241Z,26.5
2023-04-09T11:34:39.123Z,26.5
2023-04-09T11:35:40.995Z,26.5
2023-04-09T11:36:43.105Z,26.5
2023-04-09T11:37:44.983Z,26.5
2023-04-09T11:38:46.854Z,26.6
2023-04-09T11:39:48.679Z,26.7
2023-04-09T11:40:50.545Z,26.7
2023-04-09T11:41:52.458Z,26.7
2023-04-09T11:42:54.245Z,26.7
2023-04-09T11:43:56.109Z,26.7
2023-04-09T11:44:57.944Z,26.7
2023-04-09T11:45:59.807Z,26.7
2023-04-09T11:47:01.698Z,26.8
2023-04-09T11:48:03.820Z,26.8
2023-04-09T11:49:05.958Z,26.8
2023-04-09T11:50:07.879Z,26.8
2023-04-09T11:51:09.678Z,26.8
2023-04-09T11:52:11.510Z,26.9
2023-04-09T11:53:13.374Z,26.9
2023-04-09T11:54:15.188Z,26.9
2023-04-09T11:55:16.943Z,26.9
2023-04-09T11:56:18.801Z,26.9
2023-04-09T11:57:20.644Z,26.9
2023-04-09T11:58:22.557Z,27
2023-04-09T11:59:24.470Z,26.9
2023-04-09T12:00:26.265Z,26.9
2023-04-09T12:01:28.097Z,27
2023-04-09T12:02:30.112Z,27
2023-04-09T12:03:33.404Z,27
2023-04-09T12:04:36.500Z,27
2023-04-09T12:05:41.197Z,27
2023-04-09T12:06:52.569Z,27
2023-04-09T12:07:56.498Z,27
2023-04-09T12:08:58.614Z,27
2023-04-09T12:10:00.475Z,27
2023-04-09T12:11:02.365Z,27
2023-04-09T12:12:04.336Z,27
2023-04-09T12:13:06.222Z,27
2023-04-09T12:14:08.065Z,27
2023-04-09T12:15:09.943Z,27
2023-04-09T12:16:11.849Z,27
2023-04-09T12:17:13.933Z,27
2023-04-09T12:18:15.866Z,27
2023-04-09T12:19:17.734Z,27
2023-04-09T12:20:19.554Z,27
2023-04-09T12:21:21.430Z,27
2023-04-09T12:22:23.280Z,27
2023-04-09T12:23:25.158Z,27
2023-04-09T12:24:26.997Z,27
2023-04-09T12:25:28.824Z,27
2023-04-09T12:26:30.687Z,27
2023-04-09T12:27:33.909Z,27
2023-04-09T12:28:35.840Z,27
2023-04-09T12:29:37.737Z,27
2023-04-09T12:30:39.620Z,27
2023-04-09T12:31:41.552Z,27
2023-04-09T12:32:43.673Z,27
2023-04-09T12:33:45.601Z,27
2023-04-09T12:34:47.599Z,27
2023-04-09T12:35:49.491Z,27
2023-04-09T12:36:51.534Z,27
2023-04-09T12:37:53.409Z,27
2023-04-09T12:38:55.240Z,27
2023-04-09T12:39:57.157Z,27
2023-04-09T12:40:59.033Z,27
2023-04-09T12:42:00.887Z,27.1
2023-04-09T12:43:02.834Z,27.1
2023-04-09T12:44:04.756Z,27.1
2023-04-09T12:45:06.746Z,27.1
2023-04-09T12:46:08.633Z,27.1
2023-04-09T12:47:10.714Z,27.1
2023-04-09T12:48:12.593Z,27.1
2023-04-09T12:49:14.352Z,27.1
2023-04-09T12:50:16.118Z,27.1
2023-04-09T12:51:18.042Z,27.1
2023-04-09T12:52:19.923Z,27.1
2023-04-09T12:53:21.568Z,27.1
2023-04-09T12:54:23.366Z,27.1
2023-04-09T12:55:25.261Z,27.1
2023-04-09T12:56:28.231Z,27.1
2023-04-09T12:57:31.662Z,27.1
2023-04-09T12:58:33.561Z,27.1
2023-04-09T12:59:35.410Z,27.1
2023-04-09T13:00:37.149Z,27.1
2023-04-09T13:01:40.733Z,27.1
2023-04-09T13:02:45.435Z,27.1
2023-04-09T13:03:47.972Z,27.1
2023-04-09T13:04:50.704Z,27.1
2023-04-09T13:05:52.593Z,27.1
2023-04-09T13:06:54.494Z,27.1
2023-04-09T13:07:56.429Z,27.1
2023-04-09T13:08:58.309Z,27.1
2023-04-09T13:10:00.203Z,27.1
2023-04-09T13:11:02.049Z,27.1
2023-04-09T13:12:03.963Z,27.1
2023-04-09T13:13:05.805Z,27.1
2023-04-09T13:14:07.580Z,27.1
2023-04-09T13:15:09.415Z,27.1
2023-04-09T13:16:11.311Z,27.1
2023-04-09T13:17:13.279Z,27.1
2023-04-09T13:18:15.676Z,27.1
2023-04-09T13:19:17.506Z,27.1
2023-04-09T13:20:19.342Z,27.1
2023-04-09T13:21:21.225Z,27.1
2023-04-09T13:22:23.067Z,27.1
2023-04-09T13:23:24.994Z,27.1
2023-04-09T13:24:26.785Z,27.1
2023-04-09T13:25:28.635Z,27.1
2023-04-09T13:26:30.478Z,27
2023-04-09T13:27:32.317Z,27
2023-04-09T13:28:34.214Z,27
2023-04-09T13:29:36.150Z,27
2023-04-09T13:30:38.111Z,27
2023-04-09T13:31:40.139Z,27
2023-04-09T13:32:42.132Z,27
2023-04-09T13:33:44.348Z,27
2023-04-09T13:34:46.212Z,27
2023-04-09T13:35:48.116Z,27.1
2023-04-09T13:36:49.992Z,27.1
2023-04-09T13:37:51.957Z,27.1
2023-04-09T13:38:54.017Z,27.1
2023-04-09T13:39:56.986Z,27.1
2023-04-09T13:40:58.893Z,27
2023-04-09T13:42:00.764Z,27.1
2023-04-09T13:43:16.053Z,27.1
2023-04-09T13:44:17.895Z,27.1
2023-04-09T13:45:19.809Z,27.1
2023-04-09T13:46:21.808Z,27.1
2023-04-09T13:47:23.683Z,27.1
2023-04-09T13:48:26.083Z,27.1
2023-04-09T13:49:28.030Z,27.1
2023-04-09T13:50:29.811Z,27.1
2023-04-09T13:51:31.587Z,27
2023-04-09T13:52:33.423Z,27.1